createdAt,value
2022-10-15T00:02:13.945Z,0.67
2022-10-15T00:04:42.211Z,0.60
2022-10-15T00:07:14.256Z,0.50
2022-10-15T00:09:42.530Z,0.67
2022-10-15T00:12:15.835Z,0.60
2022-10-15T00:14:44.122Z,0.50
2022-10-15T00:17:12.353Z,0.70
2022-10-15T00:19:42.343Z,0.70
2022-10-15T00:22:10.734Z,0.50
2022-10-15T00:24:42.131Z,0.60
2022-10-15T00:27:13.548Z,0.73
2022-10-15T00:29:41.844Z,0.50
2022-10-15T00:32:12.549Z,0.57
2022-10-15T00:34:40.834Z,0.70
2022-10-15T00:37:09.202Z,0.50
2022-10-15T00:39:39.777Z,0.60
2022-10-15T00:42:10.602Z,0.40
2022-10-15T00:44:55.929Z,0.53
2022-10-15T00:47:29.188Z,0.60
2022-10-15T00:50:00.722Z,0.60
2022-10-15T00:52:32.094Z,0.40
2022-10-15T00:55:05.038Z,0.50
2022-10-15T00:57:33.971Z,0.50
2022-10-15T01:00:06.085Z,0.50
2022-10-15T01:02:34.426Z,0.47
2022-10-15T01:05:05.990Z,0.40
2022-10-15T01:07:36.021Z,0.50
2022-10-15T01:10:04.585Z,0.50
2022-10-15T01:12:42.419Z,0.50
2022-10-15T01:15:17.398Z,0.60
2022-10-15T01:17:51.334Z,0.50
2022-10-15T01:20:40.784Z,0.40
2022-10-15T01:23:25.247Z,0.60
2022-10-15T01:26:00.536Z,0.40
2022-10-15T01:28:39.559Z,0.50
2022-10-15T01:31:14.254Z,0.43
2022-10-15T01:33:47.955Z,0.43
2022-10-15T01:36:20.039Z,0.47
2022-10-15T01:38:51.029Z,0.63
2022-10-15T01:41:22.263Z,0.60
2022-10-15T01:43:55.377Z,0.50
2022-10-15T01:46:26.245Z,0.40
2022-10-15T01:48:58.652Z,0.60
2022-10-15T01:51:29.212Z,0.53
2022-10-15T01:53:59.920Z,0.50
2022-10-15T01:56:30.012Z,1.17
2022-10-15T01:58:58.840Z,0.40
2022-10-15T02:01:28.481Z,0.70
2022-10-15T02:04:00.126Z,0.50
2022-10-15T02:06:33.894Z,0.53
2022-10-15T02:09:09.129Z,0.50
2022-10-15T02:11:45.368Z,0.50
2022-10-15T02:14:19.526Z,0.40
2022-10-15T02:16:54.474Z,0.50
2022-10-15T02:19:25.654Z,0.50
2022-10-15T02:21:58.973Z,0.50
2022-10-15T02:24:27.969Z,0.40
2022-10-15T02:27:00.670Z,0.43
2022-10-15T02:29:32.109Z,0.43
2022-10-15T02:32:02.140Z,0.50
2022-10-15T02:34:33.878Z,0.60
2022-10-15T02:37:05.442Z,0.50
2022-10-15T02:39:34.000Z,0.50
2022-10-15T02:42:04.739Z,0.40
2022-10-15T02:44:35.049Z,0.50
2022-10-15T02:47:06.849Z,0.50
2022-10-15T02:49:37.311Z,0.50
2022-10-15T02:52:05.799Z,0.50
2022-10-15T02:54:34.061Z,0.50
2022-10-15T02:57:02.511Z,0.50
2022-10-15T02:59:32.380Z,0.40
2022-10-15T03:02:00.625Z,0.47
2022-10-15T03:04:33.323Z,0.43
2022-10-15T03:07:04.640Z,0.77
2022-10-15T03:09:34.603Z,0.40
2022-10-15T03:12:02.861Z,0.50
2022-10-15T03:14:31.113Z,0.50
2022-10-15T03:17:00.522Z,0.73
2022-10-15T03:19:32.119Z,0.70
2022-10-15T03:22:02.396Z,0.40
2022-10-15T03:24:30.651Z,0.40
2022-10-15T03:26:58.912Z,0.50
2022-10-15T03:29:27.163Z,0.50
2022-10-15T03:31:58.164Z,0.50
2022-10-15T03:34:29.493Z,0.40
2022-10-15T03:37:00.306Z,0.57
2022-10-15T03:39:28.622Z,0.50
2022-10-15T03:41:58.380Z,0.40
2022-10-15T03:44:28.502Z,0.57
2022-10-15T03:46:58.761Z,0.60
2022-10-15T03:49:29.144Z,0.50
2022-10-15T03:51:58.797Z,0.77
2022-10-15T03:54:29.229Z,0.50
2022-10-15T03:56:59.732Z,0.60
2022-10-15T03:59:28.213Z,0.40
2022-10-15T04:01:56.493Z,0.63
2022-10-15T04:04:24.772Z,0.60
2022-10-15T04:06:53.031Z,0.60
2022-10-15T04:09:25.917Z,0.40
2022-10-15T04:11:57.349Z,0.63
2022-10-15T04:14:25.617Z,0.70
2022-10-15T04:16:55.107Z,0.50
2022-10-15T04:19:25.062Z,0.60
2022-10-15T04:21:53.305Z,0.60
2022-10-15T04:24:26.168Z,0.50
2022-10-15T04:26:54.671Z,0.53
2022-10-15T04:29:24.123Z,0.50
2022-10-15T04:31:55.680Z,0.47
2022-10-15T04:34:23.925Z,0.50
2022-10-15T04:36:53.346Z,0.50
2022-10-15T04:39:26.658Z,0.40
2022-10-15T04:41:54.894Z,0.53
2022-10-15T04:44:26.221Z,0.60
2022-10-15T04:46:54.551Z,0.63
2022-10-15T04:49:23.971Z,0.60
2022-10-15T04:51:55.899Z,0.50
2022-10-15T04:57:01.957Z,0.87
2022-10-15T04:59:32.112Z,0.60
2022-10-15T05:02:00.453Z,0.60
2022-10-15T05:04:30.423Z,0.50
2022-10-15T05:07:00.653Z,0.50
2022-10-15T05:09:34.681Z,0.60
2022-10-15T05:12:07.363Z,0.53
2022-10-15T05:14:35.678Z,0.40
2022-10-15T05:17:04.217Z,0.70
2022-10-15T05:19:32.493Z,0.60
2022-10-15T05:22:02.515Z,0.50
2022-10-15T05:24:32.137Z,0.53
2022-10-15T05:27:02.895Z,0.73
2022-10-15T05:29:32.961Z,0.70
2022-10-15T05:32:05.198Z,0.50
2022-10-15T05:34:33.700Z,0.67
2022-10-15T05:37:04.958Z,0.97
2022-10-15T05:39:34.602Z,0.63
2022-10-15T05:42:02.846Z,0.70
2022-10-15T05:44:33.236Z,0.93
2022-10-15T05:47:03.138Z,0.63
2022-10-15T05:49:31.398Z,1.30
2022-10-15T05:51:59.679Z,0.70
2022-10-15T05:54:29.210Z,0.50
2022-10-15T05:57:01.974Z,0.80
2022-10-15T05:59:33.338Z,0.60
2022-10-15T06:02:01.651Z,0.53
2022-10-15T06:04:35.649Z,0.87
2022-10-15T06:07:08.049Z,0.77
2022-10-15T06:09:36.369Z,0.70
2022-10-15T06:12:09.270Z,1.03
2022-10-15T06:14:39.287Z,1.37
2022-10-15T06:17:09.421Z,1.00
2022-10-15T06:19:39.653Z,0.77
2022-10-15T06:22:09.998Z,0.70
2022-10-15T06:24:38.230Z,0.73
2022-10-15T06:27:09.997Z,0.73
2022-10-15T06:29:40.335Z,0.90
2022-10-15T06:32:11.894Z,0.70
2022-10-15T06:34:43.273Z,0.80
2022-10-15T06:37:11.506Z,0.80
2022-10-15T06:39:43.900Z,1.33
2022-10-15T06:42:15.631Z,1.47
2022-10-15T06:44:46.038Z,0.73
2022-10-15T06:47:16.503Z,0.80
2022-10-15T06:49:44.762Z,0.50
2022-10-15T06:52:15.944Z,0.77
2022-10-15T06:54:47.445Z,1.17
2022-10-15T06:57:20.890Z,1.03
2022-10-15T06:59:49.410Z,1.00
2022-10-15T07:02:20.565Z,1.50
2022-10-15T07:04:50.942Z,0.60
2022-10-15T07:07:19.251Z,1.03
2022-10-15T07:09:53.482Z,0.90
2022-10-15T07:12:25.615Z,0.70
2022-10-15T07:14:54.168Z,0.93
2022-10-15T07:17:25.475Z,0.77
2022-10-15T07:19:56.772Z,1.30
2022-10-15T07:22:25.391Z,1.60
2022-10-15T07:24:55.869Z,0.60
2022-10-15T07:27:27.574Z,0.83
2022-10-15T07:29:55.825Z,0.97
2022-10-15T07:32:24.239Z,0.73
2022-10-15T07:34:55.790Z,1.10
2022-10-15T07:37:24.343Z,0.50
2022-10-15T07:39:52.602Z,0.70
2022-10-15T07:42:23.975Z,0.50
2022-10-15T07:44:55.582Z,0.60
2022-10-15T07:47:24.128Z,0.83
2022-10-15T07:49:53.723Z,0.60
2022-10-15T07:52:23.932Z,0.70
2022-10-15T07:54:55.460Z,0.57
2022-10-15T07:57:25.507Z,0.70
2022-10-15T07:59:55.127Z,0.50
2022-10-15T08:02:25.994Z,0.50
2022-10-15T08:04:56.570Z,0.50
2022-10-15T08:07:24.868Z,0.67
2022-10-15T08:09:53.127Z,0.90
2022-10-15T08:12:24.761Z,1.00
2022-10-15T08:14:55.709Z,0.60
2022-10-15T08:17:27.676Z,0.53
2022-10-15T08:19:56.043Z,0.50
2022-10-15T08:22:26.117Z,0.80
2022-10-15T08:24:56.389Z,0.70
2022-10-15T08:27:28.277Z,0.40
2022-10-15T08:29:57.979Z,0.60
2022-10-15T08:32:26.464Z,0.50
2022-10-15T08:34:56.070Z,0.40
2022-10-15T08:37:27.351Z,0.60
2022-10-15T08:39:57.551Z,0.50
2022-10-15T08:42:33.386Z,0.40
2022-10-15T08:45:07.160Z,0.40
2022-10-15T08:47:39.836Z,0.40
2022-10-15T08:50:17.571Z,0.60
2022-10-15T08:52:54.653Z,0.50
2022-10-15T08:57:58.055Z,0.60
2022-10-15T09:00:33.467Z,0.60
2022-10-15T09:03:06.928Z,0.60
2022-10-15T09:05:41.370Z,0.50
2022-10-15T09:08:17.439Z,0.60
2022-10-15T09:10:50.561Z,0.50
2022-10-15T09:13:25.920Z,0.60
2022-10-15T09:16:00.237Z,0.70
2022-10-15T09:18:32.589Z,0.93
2022-10-15T09:21:04.010Z,0.57
2022-10-15T09:23:38.965Z,0.60
2022-10-15T09:26:13.577Z,0.70
2022-10-15T09:28:46.255Z,0.30
2022-10-15T09:31:20.713Z,0.70
2022-10-15T09:33:54.327Z,0.50
2022-10-15T09:36:34.997Z,0.50
2022-10-15T09:39:08.994Z,0.60
2022-10-15T09:41:44.438Z,1.07
2022-10-15T09:44:19.733Z,0.60
2022-10-15T09:46:54.501Z,0.60
2022-10-15T09:49:25.688Z,0.53
2022-10-15T09:52:03.482Z,0.60
2022-10-15T09:54:43.934Z,0.90
2022-10-15T09:57:14.889Z,0.60
2022-10-15T09:59:54.472Z,0.87
2022-10-15T10:02:25.818Z,0.80
2022-10-15T10:04:54.616Z,0.73
2022-10-15T10:07:31.094Z,0.90
2022-10-15T10:10:01.516Z,1.07
2022-10-15T10:12:33.109Z,0.90
2022-10-15T10:15:05.002Z,2.00
2022-10-15T10:17:34.445Z,0.80
2022-10-15T10:20:18.795Z,0.70
2022-10-15T10:22:51.402Z,0.50
2022-10-15T10:25:35.835Z,0.80
2022-10-15T10:28:18.030Z,1.00
2022-10-15T10:30:50.995Z,0.70
2022-10-15T10:33:24.221Z,0.90
2022-10-15T10:35:52.888Z,0.57
2022-10-15T10:38:26.062Z,1.07
2022-10-15T10:40:56.408Z,0.97
2022-10-15T10:43:27.632Z,0.90
2022-10-15T10:46:00.912Z,0.60
2022-10-15T10:48:43.039Z,0.90
2022-10-15T10:51:19.261Z,0.80
2022-10-15T10:53:54.674Z,0.70
2022-10-15T10:56:25.056Z,0.60
2022-10-15T10:58:59.483Z,0.80
2022-10-15T11:01:28.232Z,0.80
2022-10-15T11:03:57.700Z,0.83
2022-10-15T11:06:52.320Z,0.80
2022-10-15T11:09:27.634Z,0.73
2022-10-15T11:12:07.453Z,0.70
2022-10-15T11:14:46.983Z,0.73
2022-10-15T11:17:19.705Z,0.70
2022-10-15T11:22:55.997Z,0.80
2022-10-15T11:25:34.014Z,0.77
2022-10-15T11:28:15.712Z,1.07
2022-10-15T11:30:51.227Z,0.70
2022-10-15T11:33:36.761Z,0.60
2022-10-15T11:36:20.915Z,0.83
2022-10-15T11:38:57.909Z,0.70
2022-10-15T11:41:38.857Z,0.67
2022-10-15T11:44:26.262Z,0.80
2022-10-15T11:47:03.008Z,0.53
2022-10-15T11:49:39.955Z,0.80
2022-10-15T11:52:27.267Z,0.50
2022-10-15T11:55:03.500Z,0.70
2022-10-15T11:57:34.783Z,0.60
2022-10-15T12:00:06.771Z,0.80
2022-10-15T12:02:37.220Z,0.90
2022-10-15T12:05:08.964Z,0.90
2022-10-15T12:07:41.423Z,1.10
2022-10-15T12:10:17.513Z,0.50
2022-10-15T12:12:50.895Z,0.50
2022-10-15T12:15:28.652Z,0.50
2022-10-15T12:18:05.692Z,0.70
2022-10-15T12:20:33.750Z,0.90
2022-10-15T12:23:04.258Z,0.80
2022-10-15T12:25:47.281Z,0.53
2022-10-15T12:28:21.635Z,0.60
2022-10-15T12:31:01.289Z,0.80
2022-10-15T12:33:38.302Z,0.53
2022-10-15T12:36:16.600Z,0.70
2022-10-15T12:38:57.429Z,0.83
2022-10-15T12:41:38.332Z,0.60
2022-10-15T12:44:09.041Z,0.50
2022-10-15T12:46:39.292Z,0.80
2022-10-15T12:49:40.753Z,0.70
2022-10-15T12:52:42.153Z,0.67
2022-10-15T12:55:26.319Z,0.80
2022-10-15T12:58:00.418Z,1.00
2022-10-15T13:00:31.984Z,0.50
2022-10-15T13:03:12.193Z,0.60
2022-10-15T13:05:40.851Z,0.70
2022-10-15T13:08:16.000Z,0.60
2022-10-15T13:10:51.969Z,0.50
2022-10-15T13:13:23.626Z,1.50
2022-10-15T13:15:56.161Z,1.07
2022-10-15T13:18:26.181Z,1.03
2022-10-15T13:20:56.422Z,0.77
2022-10-15T13:23:31.694Z,0.63
2022-10-15T13:26:19.008Z,0.90
2022-10-15T13:28:48.238Z,0.63
2022-10-15T13:31:29.101Z,0.53
2022-10-15T13:34:02.128Z,0.80
2022-10-15T13:36:33.071Z,0.70
2022-10-15T13:39:04.655Z,0.60
2022-10-15T13:41:37.142Z,0.60
2022-10-15T13:44:05.842Z,0.90
2022-10-15T13:46:37.753Z,0.97
2022-10-15T13:49:12.399Z,0.60
2022-10-15T13:51:43.025Z,0.70
2022-10-15T13:54:16.073Z,0.70
2022-10-15T13:56:51.509Z,0.50
2022-10-15T13:59:21.025Z,0.80
2022-10-15T14:01:50.389Z,0.60
2022-10-15T14:04:19.996Z,0.70
2022-10-15T14:06:57.152Z,0.70
2022-10-15T14:09:29.207Z,0.60
2022-10-15T14:12:02.249Z,0.60
2022-10-15T14:14:34.140Z,0.67
2022-10-15T14:17:05.319Z,1.07
2022-10-15T14:19:35.406Z,0.90
2022-10-15T14:22:04.396Z,1.10
2022-10-15T14:24:35.233Z,0.53
2022-10-15T14:27:07.288Z,0.77
2022-10-15T14:29:43.981Z,0.80
2022-10-15T14:32:21.384Z,0.67
2022-10-15T14:34:50.269Z,0.67
2022-10-15T14:37:33.705Z,1.07
2022-10-15T14:40:13.787Z,0.73
2022-10-15T14:42:44.863Z,0.77
2022-10-15T14:45:14.566Z,0.77
2022-10-15T14:47:45.182Z,0.53
2022-10-15T14:50:13.529Z,0.97
2022-10-15T14:52:46.171Z,0.93
2022-10-15T14:55:26.574Z,0.70
2022-10-15T14:57:56.519Z,0.70
2022-10-15T15:00:27.664Z,0.50
2022-10-15T15:02:57.561Z,0.63
2022-10-15T15:05:26.728Z,0.50
2022-10-15T15:07:56.765Z,0.50
2022-10-15T15:10:25.990Z,0.53
2022-10-15T15:12:57.245Z,0.80
2022-10-15T15:15:27.503Z,0.60
2022-10-15T15:17:56.038Z,0.50
2022-10-15T15:20:25.922Z,0.60
2022-10-15T15:22:55.698Z,0.80
2022-10-15T15:25:29.993Z,0.60
2022-10-15T15:27:59.302Z,0.80
2022-10-15T15:30:31.234Z,0.80
2022-10-15T15:33:00.576Z,0.90
2022-10-15T15:35:34.884Z,0.80
2022-10-15T15:38:02.837Z,0.60
2022-10-15T15:40:32.285Z,0.80
2022-10-15T15:43:01.587Z,0.50
2022-10-15T15:45:30.331Z,0.80
2022-10-15T15:48:02.022Z,1.47
2022-10-15T15:50:30.298Z,0.90
2022-10-15T15:52:58.439Z,0.70
2022-10-15T15:55:26.470Z,0.80
2022-10-15T15:57:54.413Z,0.70
2022-10-15T16:00:23.768Z,0.70
2022-10-15T16:02:54.095Z,0.60
2022-10-15T16:05:25.471Z,0.60
2022-10-15T16:07:53.755Z,0.53
2022-10-15T16:10:21.716Z,0.70
2022-10-15T16:12:49.698Z,0.90
2022-10-15T16:15:17.838Z,0.83
2022-10-15T16:17:47.167Z,0.97
2022-10-15T16:20:15.458Z,0.90
2022-10-15T16:22:43.409Z,0.73
2022-10-15T16:25:11.918Z,0.70
2022-10-15T16:27:39.904Z,0.77
2022-10-15T16:30:08.641Z,0.90
2022-10-15T16:32:36.603Z,0.87
2022-10-15T16:35:06.781Z,0.83
2022-10-15T16:37:34.739Z,0.77
2022-10-15T16:40:02.825Z,0.97
2022-10-15T16:42:30.815Z,0.90
2022-10-15T16:44:58.770Z,1.27
2022-10-15T16:47:27.158Z,0.87
2022-10-15T16:49:56.182Z,0.70
2022-10-15T16:52:25.948Z,0.70
2022-10-15T16:54:54.076Z,0.87
2022-10-15T16:57:22.028Z,0.67
2022-10-15T16:59:49.977Z,0.73
2022-10-15T17:02:17.931Z,0.83
2022-10-15T17:04:46.780Z,1.13
2022-10-15T17:07:14.752Z,0.80
2022-10-15T17:09:45.014Z,0.80
2022-10-15T17:12:13.216Z,0.90
2022-10-15T17:14:41.216Z,0.67
2022-10-15T17:17:09.234Z,0.50
2022-10-15T17:19:37.400Z,0.93
2022-10-15T17:22:05.329Z,1.27
2022-10-15T17:24:33.303Z,0.77
2022-10-15T17:27:02.618Z,0.70
2022-10-15T17:29:33.273Z,0.83
2022-10-15T17:32:01.915Z,0.70
2022-10-15T17:34:29.895Z,0.80
2022-10-15T17:36:57.859Z,0.73
2022-10-15T17:39:25.871Z,0.80
2022-10-15T17:41:53.830Z,0.60
2022-10-15T17:44:23.172Z,0.97
2022-10-15T17:46:52.603Z,0.97
2022-10-15T17:49:20.894Z,0.80
2022-10-15T17:51:48.856Z,1.13
2022-10-15T17:54:16.832Z,0.50
2022-10-15T17:56:45.030Z,1.07
2022-10-15T17:59:14.014Z,0.73
2022-10-15T18:02:00.738Z,0.90
2022-10-15T18:04:29.781Z,0.70
2022-10-15T18:06:57.892Z,0.70
2022-10-15T18:09:26.022Z,1.10
2022-10-15T18:11:54.017Z,0.70
2022-10-15T18:14:22.096Z,0.67
2022-10-15T18:16:51.484Z,0.70
2022-10-15T18:19:19.685Z,0.70
2022-10-15T18:21:49.790Z,0.90
2022-10-15T18:24:21.228Z,0.77
2022-10-15T18:26:49.606Z,0.90
2022-10-15T18:29:17.600Z,1.23
2022-10-15T18:31:46.640Z,0.83
2022-10-15T18:34:16.308Z,0.60
2022-10-15T18:36:44.549Z,0.83
2022-10-15T18:39:13.010Z,0.90
2022-10-15T18:41:41.766Z,1.00
2022-10-15T18:44:15.729Z,1.20
2022-10-15T18:46:45.100Z,1.10
2022-10-15T18:49:16.790Z,1.00
2022-10-15T18:51:46.138Z,0.63
2022-10-15T18:54:14.701Z,0.70
2022-10-15T18:56:42.731Z,0.80
2022-10-15T18:59:11.010Z,0.60
2022-10-15T19:01:41.671Z,0.70
2022-10-15T19:04:12.660Z,0.90
2022-10-15T19:06:43.811Z,0.90
2022-10-15T19:09:14.607Z,0.97
2022-10-15T19:11:44.257Z,0.80
2022-10-15T19:14:12.657Z,0.90
2022-10-15T19:16:40.669Z,1.20
2022-10-15T19:19:08.996Z,0.70
2022-10-15T19:21:37.542Z,0.57
2022-10-15T19:24:07.308Z,0.73
2022-10-15T19:26:35.832Z,1.30
2022-10-15T19:29:04.673Z,0.73
2022-10-15T19:31:34.986Z,0.87
2022-10-15T19:34:03.212Z,0.90
2022-10-15T19:36:33.372Z,0.80
2022-10-15T19:39:03.017Z,1.20
2022-10-15T19:41:32.318Z,1.07
2022-10-15T19:44:00.364Z,1.60
2022-10-15T19:46:29.302Z,1.00
2022-10-15T19:48:57.492Z,0.93
2022-10-15T19:51:25.540Z,2.00
2022-10-15T19:53:54.322Z,1.40
2022-10-15T19:56:22.269Z,2.07
2022-10-15T19:58:55.720Z,1.53
2022-10-15T20:01:23.910Z,1.57
2022-10-15T20:03:52.082Z,1.30
2022-10-15T20:06:21.287Z,1.07
2022-10-15T20:08:49.617Z,0.73
2022-10-15T20:11:18.933Z,1.10
2022-10-15T20:13:47.237Z,0.70
2022-10-15T20:16:18.473Z,1.20
2022-10-15T20:18:48.866Z,0.60
2022-10-15T20:21:17.721Z,1.23
2022-10-15T20:23:47.729Z,1.10
2022-10-15T20:26:17.030Z,1.57
2022-10-15T20:28:46.496Z,0.90
2022-10-15T20:31:20.539Z,1.13
2022-10-15T20:33:48.840Z,0.93
2022-10-15T20:36:23.511Z,0.90
2022-10-15T20:38:52.516Z,0.80
2022-10-15T20:41:21.331Z,0.80
2022-10-15T20:43:54.862Z,1.27
2022-10-15T20:46:28.708Z,0.90
2022-10-15T20:49:00.566Z,1.30
2022-10-15T20:51:30.678Z,0.93
2022-10-15T20:54:00.120Z,1.00
2022-10-15T20:56:28.413Z,0.90
2022-10-15T20:58:56.419Z,1.20
2022-10-15T21:01:25.875Z,1.63
2022-10-15T21:03:53.939Z,1.50
2022-10-15T21:06:21.902Z,1.40
2022-10-15T21:08:50.040Z,1.10
2022-10-15T21:11:18.018Z,1.00
2022-10-15T21:13:46.004Z,1.17
2022-10-15T21:16:14.075Z,1.10
2022-10-15T21:18:43.435Z,1.20
2022-10-15T21:21:13.451Z,0.90
2022-10-15T21:23:42.795Z,1.37
2022-10-15T21:26:13.034Z,0.93
2022-10-15T21:28:41.724Z,0.90
2022-10-15T21:31:11.958Z,1.13
2022-10-15T21:33:40.339Z,1.00
2022-10-15T21:36:14.558Z,0.77
2022-10-15T21:38:43.451Z,1.27
2022-10-15T21:41:11.426Z,1.33
2022-10-15T21:43:39.652Z,1.33
2022-10-15T21:46:09.452Z,1.57
2022-10-15T21:48:38.275Z,1.23
2022-10-15T21:51:08.335Z,1.50
2022-10-15T21:53:37.837Z,2.53
2022-10-15T21:56:07.976Z,1.77
2022-10-15T21:58:37.741Z,1.27
2022-10-15T22:01:11.835Z,1.60
2022-10-15T22:03:41.855Z,1.27
2022-10-15T22:06:11.077Z,1.33
2022-10-15T22:08:40.453Z,1.57
2022-10-15T22:11:10.179Z,1.20
2022-10-15T22:13:38.796Z,1.40
2022-10-15T22:16:07.870Z,1.40
2022-10-15T22:18:35.825Z,1.33
2022-10-15T22:21:10.930Z,1.40
2022-10-15T22:23:40.252Z,1.37
2022-10-15T22:26:08.160Z,1.60
2022-10-15T22:28:36.236Z,1.43
2022-10-15T22:31:05.573Z,1.03
2022-10-15T22:33:35.059Z,1.70
2022-10-15T22:36:03.977Z,0.90
2022-10-15T22:38:32.688Z,1.17
2022-10-15T22:41:03.062Z,0.73
2022-10-15T22:43:31.017Z,1.07
2022-10-15T22:46:00.988Z,1.20
2022-10-15T22:48:29.502Z,1.40
2022-10-15T22:50:58.086Z,1.30
2022-10-15T22:53:26.459Z,0.93
2022-10-15T22:55:57.912Z,1.70
2022-10-15T22:58:28.354Z,1.17
2022-10-15T23:00:56.463Z,1.20
2022-10-15T23:03:24.482Z,1.00
2022-10-15T23:05:53.414Z,1.77
2022-10-15T23:08:22.138Z,1.53
2022-10-15T23:10:50.216Z,1.10
2022-10-15T23:13:18.221Z,2.07
2022-10-15T23:15:47.506Z,1.20
2022-10-15T23:18:15.449Z,1.00
2022-10-15T23:20:43.409Z,0.90
2022-10-15T23:23:11.375Z,0.97
2022-10-15T23:25:39.325Z,0.97
2022-10-15T23:28:07.364Z,2.30
2022-10-15T23:30:35.323Z,1.87
2022-10-15T23:33:04.797Z,1.47
2022-10-15T23:35:32.761Z,1.80
2022-10-15T23:38:00.838Z,1.17
2022-10-15T23:40:28.829Z,1.30
2022-10-15T23:42:56.814Z,1.63
2022-10-15T23:45:24.758Z,1.23
2022-10-15T23:47:52.730Z,1.30
2022-10-15T23:50:22.094Z,1.33
2022-10-15T23:52:50.050Z,1.20
2022-10-15T23:55:18.041Z,1.03
2022-10-15T23:57:46.377Z,1.23
